• Join FlightAware (Why Join?)
  • Login
  • US Flag 
08:54PM EDT


 

Airport Tracker/Info


-or-


 

Live Flight TrackerFlight Track Log ✈ SKW5550 ✈ 13-Oct-2013 ✈ KCOD - KDEN

Flight Track Log - Related Links

Times and Time Zones

All times are in EDT time to prevent confusion due to time zone crossing. See the SKW5550 flight status page for this flight to view local times or setup timezone preferences in your user account.

Time Position Orientation Groundspeed Altitude Reporting Facility
EDT Latitude Longitude Course Direction KTS MPH feet Rate Location/Type
09:46AM 44.5397 -108.9908 160° South 156 180 6,500  Level Salt Lake Center
09:47AM 44.5864 -108.9481 33° Northeast 229 264 8,500 2,340 Climbing Salt Lake Center
09:48AM 44.3421 -108.8419 159° South  Level Estimated
09:48AM 44.6353 -109.0036 321° Northwest 244 281 11,300  Level Salt Lake Center
09:49AM 44.2529 -108.7514 157° South  Level Estimated
09:49AM 44.5908 -109.0050 181° South 230 265 13,900  Level Salt Lake Center
09:50AM 44.1514 -108.6916 157° South  Level FlightAware Approximate
09:50AM 44.5472 -108.9206 126° Southeast 262 302 15,600  Level Salt Lake Center
09:51AM 44.0625 -108.6010 157° South  Level Estimated
09:51AM 44.4711 -108.8797 159° South 289 333 17,000  Level Salt Lake Center
09:52AM 43.9590 -108.5482 160° South  Level FlightAware Approximate
09:52AM 44.3881 -108.8311 157° South 312 359 18,400  Level Salt Lake Center
09:53AM 44.2994 -108.7803 158° South 333 383 20,300 1,620 Climbing Salt Lake Center
09:54AM 44.2100 -108.7278 157° South 345 397 21,800 1,440 Climbing Salt Lake Center
09:55AM 44.1181 -108.6764 158° South 352 405 23,300 1,380 Climbing Salt Lake Center
09:56AM 44.0247 -108.6225 157° South 361 415 24,600 1,260 Climbing Salt Lake Center
09:57AM 43.9097 -108.5550 157° South 375 432 25,900 1,080 Climbing Salt Lake Center
09:58AM 43.8108 -108.4983 158° South 383 441 26,900 960 Climbing Salt Lake Center
09:59AM 43.7119 -108.4417 157° South 385 443 27,900 900 Climbing Salt Lake Center
10:00AM 43.6119 -108.3839 157° South 389 448 28,800 960 Climbing Salt Lake Center
10:01AM 43.5122 -108.3297 158° South 387 445 29,900 900 Climbing Salt Lake Center
10:02AM 43.4172 -108.2556 150° Southeast 393 452 30,700 540 Climbing Salt Lake Center
10:03AM 43.3278 -108.1578 141° Southeast 409 471 31,000 120 Climbing Salt Lake Center
10:04AM 43.2344 -108.0606 143° Southeast 419 482 31,000  Level Salt Lake Center
10:05AM 43.1378 -107.9586 142° Southeast 435 501 31,000  Level Salt Lake Center
10:06AM 43.0406 -107.8547 142° Southeast 443 510 31,000  Level Salt Lake Center
10:08AM 42.9356 -107.7414 142° Southeast 446 513 31,000  Level Salt Lake Center
10:09AM 42.8264 -107.6289 143° Southeast 443 510 31,000  Level Salt Lake Center
10:10AM 42.7344 -107.5331 143° Southeast 438 504 31,000  Level Salt Lake Center
10:11AM 42.6406 -107.4358 143° Southeast 440 506 31,000  Level Salt Lake Center
10:12AM 42.5314 -107.3247 143° Southeast 439 505 31,000  Level Salt Lake Center
10:13AM 42.4364 -107.2292 143° Southeast 441 507 31,000  Level Salt Lake Center
10:13AM 42.3589 -107.1511 143° Southeast 439 505 31,000  Level Denver Center
10:14AM 42.2656 -107.0569 143° Southeast 437 503 31,000  Level Denver Center
10:15AM 42.1561 -106.9478 144° Southeast 437 503 31,000  Level Denver Center
10:16AM 42.0631 -106.8536 143° Southeast 436 502 31,000  Level Denver Center
10:17AM 41.9694 -106.7628 144° Southeast 433 498 31,000 -240 Level Denver Center
10:18AM 41.8625 -106.6561 143° Southeast 428 493 30,600 -480 Descending Denver Center
10:19AM 41.7689 -106.5647 144° Southeast 431 496 30,100 -540 Descending Denver Center
10:21AM 41.6628 -106.4606 144° Southeast 435 501 29,600 -540 Descending Denver Center
10:22AM 41.5714 -106.3706 144° Southeast 430 495 29,100 -600 Descending Denver Center
10:23AM 41.4658 -106.2667 144° Southeast 424 488 28,400 -660 Descending Denver Center
10:24AM 41.3769 -106.1817 144° Southeast 415 478 27,800 -720 Descending Denver Center
10:25AM 41.2739 -106.0817 144° Southeast 412 474 27,000 -420 Descending Denver Center
10:26AM 41.1886 -105.9989 144° Southeast 402 463 27,000  Level Denver Center
10:27AM 41.1036 -105.9178 144° Southeast 395 455 27,000 -120 Level Denver Center
10:28AM 41.0103 -105.8286 144° Southeast 394 453 26,800 -840 Descending Denver Center
10:29AM 40.9228 -105.7444 144° Southeast 391 450 25,300 -1,500 Descending Denver Center
10:30AM 40.8344 -105.6611 144° Southeast 390 449 23,800 -1,620 Descending Denver Center
10:31AM 40.7328 -105.5633 144° Southeast 379 436 22,000 -1,620 Descending Denver Center
10:32AM 40.6508 -105.4861 144° Southeast 368 423 20,500 -1,440 Descending Denver Center
10:33AM 40.5792 -105.3931 135° Southeast 367 422 19,100 -1,200 Descending Denver Center
10:34AM 40.5203 -105.2886 127° Southeast 359 413 18,100 -1,260 Descending Denver Center
10:35AM 40.4594 -105.1761 125° Southeast 353 406 16,600 -1,500 Descending Denver Center
10:36AM 40.4047 -105.0761 126° Southeast 340 391 15,100 -1,560 Descending Denver Center
10:37AM 40.3992 -104.9519 93° East 316 364 13,400 -1,260 Descending Denver Center
10:38AM 40.3961 -104.8542 92° East 280 322 12,500 -1,020 Descending Denver Center
10:39AM 40.3872 -104.7614 97° East 262 302 11,300 -1,260 Descending Denver Center
10:40AM 40.3244 -104.7114 149° Southeast 246 283 10,000 -660 Descending Denver Center
10:41AM 40.2686 -104.6683 150° Southeast 236 272 10,000  Level Denver Center
10:42AM 40.2044 -104.6542 170° South 218 251 10,000  Level Denver Center
10:43AM 40.1400 -104.6558 181° South 230 265 10,000 -300 Level Denver Center
10:44AM 40.0717 -104.6583 182° South 227 261 9,500 -840 Descending Denver Center
10:45AM 40.0089 -104.6586 180° South 226 260 8,300 -1,200 Descending Denver Center
10:46AM 39.9461 -104.6586 180° South 226 260 7,100 -1,080 Descending Denver Center
10:47AM 39.8944 -104.6586 180° South 165 190 6,100 -840 Descending Denver Center
10:48AM 39.8544 -104.6603 182° South 145 167 5,400 -720 Descending Denver Center